Time;durP1;ratioP1;P1;durP2;ratioP2;P2;SDS_P1;SDS_P2;PMS_P1;PMS_P2;Temp;Humidity;BMP_temperature;BMP_pressure;BME280_temperature;BME280_humidity;BME280_pressure;Samples;Min_cycle;Max_cycle;Signal;HPM_P1;HPM_P2
2023/12/02 00:01:22;;;;;;;36.90;22.40;;;;;;;0.22;100.00;99563.56;104804;1256;73559;-52
2023/12/02 00:03:50;;;;;;;32.50;19.30;;;;;;;0.22;100.00;99569.92;104618;1259;68925;-52
2023/12/02 00:06:19;;;;;;;33.60;20.60;;;;;;;0.22;100.00;99565.16;104849;1254;72434;-51
2023/12/02 00:08:46;;;;;;;29.20;18.90;;;;;;;0.22;100.00;99568.86;104734;1260;61077;-53
2023/12/02 00:11:14;;;;;;;30.20;21.00;;;;;;;0.23;100.00;99569.04;104609;1259;59961;-52
2023/12/02 00:13:41;;;;;;;30.10;20.20;;;;;;;0.23;100.00;99575.04;104735;1259;71965;-50
2023/12/02 00:16:09;;;;;;;31.00;19.80;;;;;;;0.25;100.00;99578.20;104670;1256;67224;-52
2023/12/02 00:18:36;;;;;;;32.30;20.30;;;;;;;0.27;100.00;99584.33;104764;1259;71769;-52
2023/12/02 00:21:04;;;;;;;31.30;19.80;;;;;;;0.28;100.00;99585.91;104632;1261;59712;-51
2023/12/02 00:23:32;;;;;;;31.10;20.10;;;;;;;0.30;100.00;99583.25;104496;1260;59741;-52
2023/12/02 00:25:59;;;;;;;32.90;19.30;;;;;;;0.31;100.00;99579.89;104487;1254;73104;-52
2023/12/02 00:28:27;;;;;;;33.10;20.60;;;;;;;0.33;100.00;99578.47;104644;1256;68384;-52
2023/12/02 00:30:55;;;;;;;28.40;19.20;;;;;;;0.36;100.00;99581.95;104392;1257;72451;-52
2023/12/02 00:33:22;;;;;;;35.40;20.10;;;;;;;0.37;100.00;99584.05;104520;1256;59734;-53
2023/12/02 00:35:50;;;;;;;33.20;20.30;;;;;;;0.38;100.00;99584.23;104487;1255;60718;-52
2023/12/02 00:38:17;;;;;;;38.00;24.20;;;;;;;0.39;100.00;99583.70;104558;1258;73353;-48
2023/12/02 00:40:45;;;;;;;34.10;21.70;;;;;;;0.40;100.00;99580.87;104647;1258;66776;-52
2023/12/02 00:43:12;;;;;;;34.20;21.80;;;;;;;0.41;100.00;99575.21;104528;1259;72757;-52
2023/12/02 00:45:39;;;;;;;34.80;23.00;;;;;;;0.41;100.00;99581.04;104727;1256;59665;-53
2023/12/02 00:48:07;;;;;;;36.00;22.00;;;;;;;0.42;100.00;99584.56;104688;1256;60097;-53
2023/12/02 00:50:34;;;;;;;41.70;24.20;;;;;;;0.40;100.00;99582.45;104542;1259;73136;-51
2023/12/02 00:53:01;;;;;;;37.60;23.10;;;;;;;0.38;100.00;99576.46;104627;1257;69534;-52
2023/12/02 00:55:29;;;;;;;34.80;22.50;;;;;;;0.38;100.00;99576.82;104500;1260;74374;-52
2023/12/02 00:57:56;;;;;;;35.30;23.10;;;;;;;0.36;100.00;99573.65;104511;1256;61833;-52
2023/12/02 01:00:24;;;;;;;35.20;22.90;;;;;;;0.36;100.00;99580.54;104538;1258;60435;-52
2023/12/02 01:02:52;;;;;;;33.50;21.70;;;;;;;0.36;100.00;99577.18;104730;1257;73913;-52
2023/12/02 01:05:20;;;;;;;34.80;21.80;;;;;;;0.37;100.00;99581.06;108764;1254;65754;-52
2023/12/02 01:07:47;;;;;;;40.20;22.90;;;;;;;0.38;100.00;99578.41;108850;1256;71409;-53
2023/12/02 01:10:15;;;;;;;36.80;22.50;;;;;;;0.39;100.00;99575.58;108758;1254;59730;-53
2023/12/02 01:12:43;;;;;;;38.60;24.50;;;;;;;0.42;100.00;99579.61;108745;1259;60454;-53
2023/12/02 01:15:10;;;;;;;37.20;22.90;;;;;;;0.43;100.00;99577.46;108768;1260;74357;-53
2023/12/02 01:17:37;;;;;;;33.60;21.60;;;;;;;0.43;100.00;99583.82;108754;1256;66897;-53
2023/12/02 01:20:06;;;;;;;36.60;22.70;;;;;;;0.43;100.00;99578.52;108804;1259;72666;-53
2023/12/02 01:22:33;;;;;;;36.80;22.40;;;;;;;0.42;100.00;99577.48;108725;1260;63922;-52
2023/12/02 01:25:01;;;;;;;37.70;23.00;;;;;;;0.40;100.00;99578.39;108854;1254;58826;-53
2023/12/02 01:27:28;;;;;;;39.90;26.10;;;;;;;0.38;100.00;99574.70;108514;1254;76032;-52
2023/12/02 01:29:56;;;;;;;40.60;25.00;;;;;;;0.37;100.00;99565.52;108810;1256;67426;-52
2023/12/02 01:32:23;;;;;;;40.50;25.00;;;;;;;0.35;100.00;99557.77;108887;1256;72405;-52
2023/12/02 01:34:50;;;;;;;41.00;26.20;;;;;;;0.34;100.00;99561.86;108725;1255;59327;-53
2023/12/02 01:37:18;;;;;;;39.60;26.20;;;;;;;0.31;100.00;99562.59;108776;1259;61397;-52
2023/12/02 01:39:45;;;;;;;41.30;26.30;;;;;;;0.28;100.00;99552.20;108850;1254;73507;-52
2023/12/02 01:42:12;;;;;;;45.20;27.10;;;;;;;0.24;100.00;99558.95;108823;1255;67124;-52
2023/12/02 01:44:40;;;;;;;40.90;25.70;;;;;;;0.20;100.00;99569.93;108870;1259;73183;-52
2023/12/02 01:47:07;;;;;;;38.10;24.30;;;;;;;0.18;100.00;99569.61;108356;1257;61099;-52
2023/12/02 01:49:35;;;;;;;40.30;25.00;;;;;;;0.16;100.00;99576.16;104411;1254;60613;-51
2023/12/02 01:52:02;;;;;;;38.80;24.70;;;;;;;0.15;100.00;99569.64;104701;1256;72680;-52
2023/12/02 01:54:30;;;;;;;40.30;25.80;;;;;;;0.14;100.00;99569.99;104458;1259;65815;-51
2023/12/02 01:56:58;;;;;;;41.60;26.30;;;;;;;0.14;100.00;99563.65;105435;1256;71855;-52
2023/12/02 01:59:31;;;;;;;38.90;25.00;;;;;;;0.14;100.00;99555.52;104550;1259;61743;-52
2023/12/02 02:02:01;;;;;;;41.60;26.40;;;;;;;0.15;100.00;99551.13;108677;1260;60495;-53
2023/12/02 02:04:28;;;;;;;42.20;25.40;;;;;;;0.16;100.00;99557.29;108820;1254;76051;-53
2023/12/02 02:06:55;;;;;;;45.50;27.50;;;;;;;0.18;100.00;99565.35;105311;1254;65828;-51
2023/12/02 02:09:23;;;;;;;40.60;24.70;;;;;;;0.20;100.00;99571.70;104660;1256;71461;-52
2023/12/02 02:11:51;;;;;;;46.90;27.70;;;;;;;0.21;100.00;99574.34;104719;1254;60327;-52
2023/12/02 02:14:18;;;;;;;43.50;26.90;;;;;;;0.23;100.00;99566.20;104717;1256;60446;-51
2023/12/02 02:16:45;;;;;;;45.40;28.20;;;;;;;0.25;100.00;99555.96;104662;1259;73944;-52
2023/12/02 02:19:13;;;;;;;44.20;28.20;;;;;;;0.26;100.00;99556.98;104629;1261;65856;-51
2023/12/02 02:21:40;;;;;;;47.40;26.70;;;;;;;0.28;100.00;99559.62;104590;1261;70829;-51
2023/12/02 02:24:08;;;;;;;48.10;29.70;;;;;;;0.30;100.00;99560.85;104606;1256;60525;-50
2023/12/02 02:26:35;;;;;;;48.70;28.70;;;;;;;0.31;100.00;99567.02;104632;1254;60468;-52
2023/12/02 02:29:02;;;;;;;61.00;33.80;;;;;;;0.31;100.00;99571.06;104706;1259;75018;-49
2023/12/02 02:31:30;;;;;;;55.00;31.90;;;;;;;0.31;100.00;99566.13;104697;1256;66834;-50
2023/12/02 02:33:57;;;;;;;48.00;30.50;;;;;;;0.31;100.00;99571.77;104396;1261;70553;-51
2023/12/02 02:36:25;;;;;;;51.60;29.60;;;;;;;0.29;100.00;99567.73;104915;1256;60433;-51
2023/12/02 02:38:52;;;;;;;51.00;30.30;;;;;;;0.26;100.00;99560.17;104782;1259;60369;-50
2023/12/02 02:41:19;;;;;;;55.60;32.20;;;;;;;0.21;100.00;99559.16;105392;1261;72644;-51
2023/12/02 02:43:47;;;;;;;46.10;27.90;;;;;;;0.17;100.00;99561.84;104477;1256;65654;-51
2023/12/02 02:46:14;;;;;;;50.40;28.20;;;;;;;0.14;100.00;99565.23;104817;1260;73142;-51
2023/12/02 02:48:42;;;;;;;46.70;27.90;;;;;;;0.11;100.00;99567.90;104584;1261;60535;-51
2023/12/02 02:51:09;;;;;;;44.80;26.60;;;;;;;0.10;100.00;99570.20;104596;1260;60424;-51
2023/12/02 02:53:37;;;;;;;43.20;26.50;;;;;;;0.08;100.00;99570.23;104485;1254;72686;-51
2023/12/02 02:56:05;;;;;;;37.80;24.00;;;;;;;0.06;100.00;99566.55;104578;1262;69518;-52
2023/12/02 02:58:36;;;;;;;41.80;23.30;;;;;;;0.05;100.00;99566.91;105950;1260;71475;-53
2023/12/02 03:01:04;;;;;;;43.10;25.10;;;;;;;0.05;100.00;99570.78;105118;1253;60493;-50
2023/12/02 03:03:31;;;;;;;37.40;23.30;;;;;;;0.06;100.00;99573.42;104657;1260;60454;-51
2023/12/02 03:05:59;;;;;;;39.70;25.80;;;;;;;0.07;100.00;99572.71;104591;1259;72689;-51
2023/12/02 03:08:26;;;;;;;36.80;24.20;;;;;;;0.09;100.00;99575.85;104805;1259;66972;-52
2023/12/02 03:10:54;;;;;;;38.00;23.10;;;;;;;0.12;100.00;99578.13;104595;1262;72761;-52
2023/12/02 03:13:21;;;;;;;33.90;20.10;;;;;;;0.15;100.00;99580.94;104531;1265;60429;-51
2023/12/02 03:15:49;;;;;;;31.70;20.80;;;;;;;0.18;100.00;99576.64;104643;1259;60816;-52
2023/12/02 03:18:16;;;;;;;34.20;22.10;;;;;;;0.19;100.00;99569.94;104629;1254;76118;-52
2023/12/02 03:20:44;;;;;;;35.50;22.00;;;;;;;0.19;100.00;99568.52;104695;1263;65462;-52
2023/12/02 03:23:11;;;;;;;36.00;22.40;;;;;;;0.20;100.00;99570.83;104515;1254;72736;-51
2023/12/02 03:25:39;;;;;;;40.40;23.80;;;;;;;0.22;100.00;99572.05;104515;1254;60976;-51
2023/12/02 03:28:06;;;;;;;34.70;23.20;;;;;;;0.24;100.00;99572.91;104538;1260;60499;-50
2023/12/02 03:30:33;;;;;;;37.50;23.30;;;;;;;0.25;100.00;99577.14;104528;1259;73892;-50
2023/12/02 03:33:02;;;;;;;40.60;24.70;;;;;;;0.26;100.00;99582.41;104623;1265;65789;-52
2023/12/02 03:35:29;;;;;;;37.40;24.30;;;;;;;0.26;100.00;99581.01;105814;1260;72731;-51
2023/12/02 03:37:57;;;;;;;40.40;25.80;;;;;;;0.24;100.00;99579.09;104585;1260;60894;-52
2023/12/02 03:40:24;;;;;;;38.90;23.60;;;;;;;0.23;100.00;99581.91;104917;1259;60608;-50
2023/12/02 03:42:52;;;;;;;40.80;27.00;;;;;;;0.21;100.00;99583.16;104583;1254;73809;-51
2023/12/02 03:45:19;;;;;;;39.50;25.40;;;;;;;0.17;100.00;99582.67;104723;1261;68963;-53
2023/12/02 03:47:47;;;;;;;41.60;24.20;;;;;;;0.11;100.00;99589.61;105291;1258;71564;-53
2023/12/02 03:50:14;;;;;;;34.80;23.30;;;;;;;0.06;100.00;99593.02;106282;1260;60401;-50
2023/12/02 03:52:45;;;;;;;38.60;23.90;;;;;;;0.04;100.00;99587.90;104694;1260;60381;-51
2023/12/02 03:55:13;;;;;;;34.10;23.10;;;;;;;0.04;100.00;99583.85;104589;1259;75519;-52
2023/12/02 03:57:40;;;;;;;37.70;22.80;;;;;;;0.03;100.00;99584.55;104303;1262;65832;-52
2023/12/02 04:00:11;;;;;;;34.10;22.80;;;;;;;0.04;100.00;99588.79;105512;1256;73258;-51
2023/12/02 04:02:40;;;;;;;38.70;22.70;;;;;;;0.04;100.00;99592.13;108776;1258;59535;-53
2023/12/02 04:05:08;;;;;;;38.10;24.30;;;;;;;0.02;100.00;99590.38;107449;1257;58846;-52
2023/12/02 04:07:39;;;;;;;31.90;20.80;;;;;;;0.01;100.00;99590.21;105491;1257;73943;-52
2023/12/02 04:10:07;;;;;;;35.40;21.80;;;;;;;-0.01;100.00;99593.08;104620;1256;65667;-52
2023/12/02 04:12:35;;;;;;;33.20;22.80;;;;;;;-0.01;100.00;99593.42;106816;1257;72887;-52
2023/12/02 04:15:03;;;;;;;31.10;21.30;;;;;;;0.01;100.00;99595.86;104777;1261;61913;-52
2023/12/02 04:17:31;;;;;;;34.70;22.00;;;;;;;0.03;100.00;99600.96;107964;1258;60889;-50
2023/12/02 04:19:59;;;;;;;34.30;22.40;;;;;;;0.06;100.00;99603.95;108753;1257;72659;-51
2023/12/02 04:22:26;;;;;;;31.60;21.70;;;;;;;0.09;100.00;99607.45;108778;1255;65652;-52
2023/12/02 04:24:54;;;;;;;36.50;22.90;;;;;;;0.11;100.00;99602.13;108732;1257;72749;-52
2023/12/02 04:27:21;;;;;;;46.60;29.80;;;;;;;0.16;100.00;99600.34;108737;1257;61020;-52
2023/12/02 04:29:48;;;;;;;51.10;30.10;;;;;;;0.19;100.00;99594.64;108745;1257;60619;-52
2023/12/02 04:32:16;;;;;;;55.00;33.90;;;;;;;0.21;100.00;99590.57;105819;1257;75507;-51
2023/12/02 04:34:44;;;;;;;55.60;34.10;;;;;;;0.23;100.00;99582.09;104372;1258;65536;-51
2023/12/02 04:37:12;;;;;;;59.40;37.30;;;;;;;0.26;100.00;99585.07;104485;1260;72797;-52
2023/12/02 04:39:40;;;;;;;60.10;37.40;;;;;;;0.27;100.00;99583.09;104708;1257;60659;-52
2023/12/02 04:42:07;;;;;;;60.00;36.90;;;;;;;0.27;100.00;99581.68;104716;1260;61086;-54
2023/12/02 04:44:35;;;;;;;61.70;38.00;;;;;;;0.26;100.00;99588.05;104675;1259;72502;-53
2023/12/02 04:47:03;;;;;;;60.60;37.50;;;;;;;0.25;100.00;99593.55;104857;1261;66207;-52
2023/12/02 04:49:30;;;;;;;69.00;39.50;;;;;;;0.23;100.00;99593.21;104575;1257;72657;-50
2023/12/02 04:51:58;;;;;;;62.80;36.80;;;;;;;0.23;100.00;99598.85;104529;1257;61121;-51
2023/12/02 04:54:26;;;;;;;63.30;37.60;;;;;;;0.22;100.00;99604.69;104326;1258;60451;-51
2023/12/02 04:56:53;;;;;;;63.90;37.30;;;;;;;0.22;100.00;99597.10;104577;1259;75572;-51
2023/12/02 04:59:21;;;;;;;51.40;32.90;;;;;;;0.23;100.00;99597.80;104698;1254;67794;-53
2023/12/02 05:01:48;;;;;;;60.40;36.20;;;;;;;0.24;100.00;99603.96;104587;1263;71392;-50
2023/12/02 05:04:16;;;;;;;57.30;36.10;;;;;;;0.25;100.00;99609.95;104743;1260;60760;-53
2023/12/02 05:06:43;;;;;;;57.10;34.00;;;;;;;0.26;100.00;99610.11;104654;1258;60451;-50
2023/12/02 05:09:10;;;;;;;56.40;33.10;;;;;;;0.26;100.00;99615.23;104416;1263;74019;-51
2023/12/02 05:11:38;;;;;;;52.30;31.80;;;;;;;0.27;100.00;99612.39;104532;1253;65963;-51
2023/12/02 05:14:06;;;;;;;58.30;31.90;;;;;;;0.28;100.00;99612.73;104935;1254;72292;-51
2023/12/02 05:16:33;;;;;;;51.80;32.40;;;;;;;0.30;100.00;99613.96;104657;1258;60477;-50
2023/12/02 05:19:01;;;;;;;51.00;29.50;;;;;;;0.32;100.00;99622.42;104768;1257;60489;-51
2023/12/02 05:21:28;;;;;;;50.70;30.60;;;;;;;0.34;100.00;99622.94;104614;1253;72627;-52
2023/12/02 05:23:56;;;;;;;52.20;32.00;;;;;;;0.35;100.00;99622.02;104863;1254;66955;-52
2023/12/02 05:26:23;;;;;;;56.20;33.00;;;;;;;0.35;100.00;99626.79;104957;1254;72304;-51
2023/12/02 05:28:50;;;;;;;52.70;31.40;;;;;;;0.34;100.00;99636.87;104794;1261;60382;-52
2023/12/02 05:31:19;;;;;;;61.00;35.10;;;;;;;0.33;100.00;99631.08;104610;1257;60525;-52
2023/12/02 05:33:47;;;;;;;59.30;32.40;;;;;;;0.32;100.00;99626.30;104920;1254;72571;-52
2023/12/02 05:36:14;;;;;;;52.00;33.80;;;;;;;0.31;100.00;99621.02;106718;1254;65815;-52
2023/12/02 05:38:42;;;;;;;52.60;31.80;;;;;;;0.30;100.00;99612.38;104843;1257;71555;-52
2023/12/02 05:41:09;;;;;;;54.50;32.70;;;;;;;0.28;100.00;99610.80;104812;1254;61440;-52
2023/12/02 05:43:36;;;;;;;57.80;33.60;;;;;;;0.28;100.00;99609.56;104664;1254;60560;-52
2023/12/02 05:46:04;;;;;;;53.10;31.50;;;;;;;0.26;100.00;99625.98;104846;1260;74324;-52
2023/12/02 05:48:32;;;;;;;53.20;30.90;;;;;;;0.25;100.00;99628.50;104817;1260;66960;-51
2023/12/02 05:51:01;;;;;;;52.10;31.10;;;;;;;0.23;100.00;99623.56;104415;1257;73208;-51
2023/12/02 05:53:31;;;;;;;51.60;29.80;;;;;;;0.22;100.00;99624.98;104712;1257;61355;-52
2023/12/02 05:55:58;;;;;;;46.10;28.30;;;;;;;0.21;100.00;99625.34;105187;1262;60517;-51
2023/12/02 05:58:25;;;;;;;48.10;28.30;;;;;;;0.22;100.00;99635.04;104773;1257;72630;-51
2023/12/02 06:00:53;;;;;;;44.90;28.00;;;;;;;0.25;100.00;99625.14;104917;1260;67054;-51
2023/12/02 06:03:20;;;;;;;41.30;24.20;;;;;;;0.26;100.00;99615.92;104637;1257;71340;-51
2023/12/02 06:05:48;;;;;;;43.30;26.00;;;;;;;0.27;100.00;99609.05;104798;1260;60451;-51
2023/12/02 06:08:15;;;;;;;48.20;26.60;;;;;;;0.28;100.00;99604.09;104452;1256;60542;-51
2023/12/02 06:10:43;;;;;;;43.50;24.50;;;;;;;0.30;100.00;99603.73;104739;1256;73891;-52
2023/12/02 06:13:10;;;;;;;44.00;25.40;;;;;;;0.32;100.00;99614.83;104393;1261;65125;-52
2023/12/02 06:15:37;;;;;;;48.60;25.40;;;;;;;0.33;100.00;99627.89;104604;1260;72735;-51
2023/12/02 06:18:05;;;;;;;44.30;24.90;;;;;;;0.34;100.00;99620.80;104748;1257;60557;-52
2023/12/02 06:20:33;;;;;;;44.20;24.90;;;;;;;0.36;100.00;99617.95;104619;1260;60609;-51
2023/12/02 06:23:00;;;;;;;42.90;22.80;;;;;;;0.38;100.00;99626.60;104744;1255;72695;-52
2023/12/02 06:25:27;;;;;;;41.00;23.50;;;;;;;0.37;100.00;99620.95;104508;1258;66594;-51
2023/12/02 06:27:55;;;;;;;41.60;22.50;;;;;;;0.38;100.00;99617.23;104409;1257;71460;-52
2023/12/02 06:30:22;;;;;;;39.50;21.80;;;;;;;0.39;100.00;99616.88;104564;1261;61916;-53
2023/12/02 06:32:50;;;;;;;40.30;21.20;;;;;;;0.40;100.00;99615.28;104852;1258;60548;-52
2023/12/02 06:35:18;;;;;;;43.90;23.20;;;;;;;0.43;100.00;99620.19;104679;1255;73885;-53
2023/12/02 06:37:45;;;;;;;39.50;21.60;;;;;;;0.43;100.00;99627.23;104641;1258;65056;-53
2023/12/02 06:40:12;;;;;;;39.50;21.10;;;;;;;0.44;100.00;99630.59;104720;1257;71456;-51
2023/12/02 06:42:40;;;;;;;38.90;22.20;;;;;;;0.45;100.00;99621.23;104711;1258;60423;-53
2023/12/02 06:45:08;;;;;;;39.30;19.30;;;;;;;0.47;100.00;99625.10;108895;1254;58844;-54
2023/12/02 06:47:36;;;;;;;35.40;18.90;;;;;;;0.48;100.00;99622.98;106881;1260;74248;-52
2023/12/02 06:50:04;;;;;;;37.10;20.10;;;;;;;0.50;100.00;99618.55;107904;1254;66074;-52
2023/12/02 06:52:32;;;;;;;37.40;20.40;;;;;;;0.52;100.00;99615.67;104653;1254;72742;-50
2023/12/02 06:55:00;;;;;;;40.20;21.60;;;;;;;0.52;100.00;99621.33;104715;1260;60660;-52
2023/12/02 06:57:31;;;;;;;30.30;17.60;;;;;;;0.53;100.00;99623.45;104747;1259;60457;-54
2023/12/02 06:59:58;;;;;;;30.90;16.70;;;;;;;0.53;100.00;99622.91;108766;1257;73893;-52
2023/12/02 07:02:26;;;;;;;30.90;16.10;;;;;;;0.52;100.00;99625.21;108335;1257;67488;-52
2023/12/02 07:04:53;;;;;;;30.60;14.40;;;;;;;0.52;100.00;99628.04;104595;1255;71381;-52
2023/12/02 07:07:21;;;;;;;29.00;15.40;;;;;;;0.52;100.00;99625.91;104302;1254;61465;-50
2023/12/02 07:09:48;;;;;;;27.80;14.00;;;;;;;0.51;100.00;99626.46;104386;1254;60654;-52
2023/12/02 07:12:16;;;;;;;26.40;13.50;;;;;;;0.51;100.00;99624.53;104536;1254;73932;-52
2023/12/02 07:14:43;;;;;;;23.00;13.00;;;;;;;0.51;100.00;99621.52;104461;1256;65744;-52
2023/12/02 07:17:11;;;;;;;25.40;13.50;;;;;;;0.49;100.00;99618.91;104482;1255;73031;-51
2023/12/02 07:19:39;;;;;;;22.40;12.20;;;;;;;0.48;100.00;99622.09;104619;1254;60610;-51
2023/12/02 07:22:06;;;;;;;19.00;11.00;;;;;;;0.50;100.00;99619.79;108970;1254;58784;-52
2023/12/02 07:24:34;;;;;;;22.20;12.20;;;;;;;0.50;100.00;99618.20;108793;1254;74049;-52
2023/12/02 07:27:01;;;;;;;21.10;11.50;;;;;;;0.51;100.00;99622.94;108779;1254;65906;-52
2023/12/02 07:29:29;;;;;;;21.70;12.50;;;;;;;0.50;100.00;99621.36;108761;1254;73202;-52
2023/12/02 07:32:00;;;;;;;25.50;13.10;;;;;;;0.49;100.00;99618.73;108863;1256;61099;-52
2023/12/02 07:34:27;;;;;;;24.20;13.00;;;;;;;0.48;100.00;99611.85;104885;1257;61190;-51
2023/12/02 07:36:54;;;;;;;24.90;13.20;;;;;;;0.48;100.00;99610.96;104746;1261;75835;-52
2023/12/02 07:39:22;;;;;;;26.50;13.70;;;;;;;0.48;100.00;99611.50;104775;1259;65755;-52
2023/12/02 07:41:49;;;;;;;22.20;12.60;;;;;;;0.47;100.00;99610.10;104743;1259;72496;-51
2023/12/02 07:44:17;;;;;;;28.90;14.90;;;;;;;0.46;100.00;99611.16;104760;1254;60348;-51
2023/12/02 07:46:45;;;;;;;29.50;15.00;;;;;;;0.45;100.00;99614.16;104639;1254;60483;-51
2023/12/02 07:49:12;;;;;;;29.20;15.80;;;;;;;0.44;100.00;99614.88;104465;1256;73853;-52
2023/12/02 07:51:40;;;;;;;23.70;15.20;;;;;;;0.44;100.00;99607.82;104532;1255;65627;-53
2023/12/02 07:54:07;;;;;;;26.80;15.00;;;;;;;0.44;100.00;99601.99;104550;1256;72724;-53
2023/12/02 07:56:36;;;;;;;22.30;13.80;;;;;;;0.45;100.00;99598.63;104575;1258;60466;-53
2023/12/02 07:59:04;;;;;;;30.90;16.20;;;;;;;0.45;100.00;99598.27;108681;1256;59256;-52
2023/12/02 08:01:31;;;;;;;30.50;16.30;;;;;;;0.44;100.00;99599.34;108820;1255;72644;-52
2023/12/02 08:03:59;;;;;;;28.50;16.50;;;;;;;0.43;100.00;99602.02;107266;1256;66997;-52
2023/12/02 08:06:26;;;;;;;28.60;15.80;;;;;;;0.42;100.00;99596.73;104484;1257;72502;-51
2023/12/02 08:08:54;;;;;;;28.60;15.40;;;;;;;0.39;100.00;99596.41;104475;1258;60437;-52
2023/12/02 08:11:21;;;;;;;24.70;14.40;;;;;;;0.37;100.00;99597.65;104771;1254;60573;-51
2023/12/02 08:13:49;;;;;;;22.10;14.10;;;;;;;0.34;100.00;99603.85;104819;1257;72684;-51
2023/12/02 08:16:16;;;;;;;24.00;14.00;;;;;;;0.32;100.00;99605.83;104672;1257;66841;-51
2023/12/02 08:18:44;;;;;;;25.70;15.10;;;;;;;0.31;100.00;99606.19;104673;1254;73336;-51
2023/12/02 08:21:11;;;;;;;27.00;15.70;;;;;;;0.31;100.00;99610.25;104889;1254;60549;-51
2023/12/02 08:23:39;;;;;;;26.80;14.60;;;;;;;0.31;100.00;99612.20;104794;1258;60355;-52
2023/12/02 08:26:07;;;;;;;26.10;15.30;;;;;;;0.31;100.00;99616.96;104644;1254;73422;-52
2023/12/02 08:28:34;;;;;;;27.20;13.80;;;;;;;0.31;100.00;99619.96;105195;1254;67247;-53
2023/12/02 08:31:02;;;;;;;23.70;14.10;;;;;;;0.31;100.00;99617.13;104927;1254;72623;-51
2023/12/02 08:33:29;;;;;;;23.50;14.50;;;;;;;0.32;100.00;99612.02;104753;1256;60492;-52
2023/12/02 08:35:56;;;;;;;23.70;13.90;;;;;;;0.34;100.00;99607.05;104715;1258;60412;-52
2023/12/02 08:38:24;;;;;;;19.80;12.40;;;;;;;0.36;100.00;99605.77;104943;1257;73964;-52
2023/12/02 08:40:51;;;;;;;20.70;12.20;;;;;;;0.37;100.00;99611.41;104886;1254;66921;-50
2023/12/02 08:43:19;;;;;;;18.90;12.20;;;;;;;0.39;100.00;99620.06;104887;1255;71472;-52
2023/12/02 08:45:46;;;;;;;20.20;11.70;;;;;;;0.39;100.00;99623.77;104769;1259;60523;-52
2023/12/02 08:48:14;;;;;;;16.00;10.40;;;;;;;0.40;100.00;99625.35;104970;1260;60490;-50
2023/12/02 08:50:41;;;;;;;20.70;10.50;;;;;;;0.40;100.00;99622.17;104682;1254;73823;-52
2023/12/02 08:53:09;;;;;;;15.80;11.30;;;;;;;0.39;100.00;99619.71;104947;1260;67570;-52
2023/12/02 08:55:37;;;;;;;18.80;11.00;;;;;;;0.39;100.00;99622.36;107316;1254;72723;-51
2023/12/02 08:58:04;;;;;;;18.20;10.60;;;;;;;0.40;100.00;99627.99;105639;1257;63098;-52
2023/12/02 09:00:32;;;;;;;20.10;11.90;;;;;;;0.43;100.00;99629.56;104876;1254;61002;-53
2023/12/02 09:02:59;;;;;;;19.10;12.10;;;;;;;0.44;100.00;99636.59;103548;1254;3494169;-52
2023/12/02 09:06:34;;;;;;;20.40;12.50;;;;;;;0.45;100.00;99702.60;101726;1292;602891;-52
2023/12/02 09:09:05;;;;;;;21.30;13.10;;;;;;;0.44;100.00;99713.21;103852;1270;59267;-51
2023/12/02 09:11:32;;;;;;;22.30;12.30;;;;;;;0.43;100.00;99702.45;103674;1269;59507;-52
2023/12/02 09:14:00;;;;;;;20.50;12.00;;;;;;;0.40;100.00;99695.96;104223;1268;71170;-52
2023/12/02 09:16:29;;;;;;;21.90;12.70;;;;;;;0.36;100.00;99687.33;103741;1273;65056;-51
2023/12/02 09:18:56;;;;;;;18.10;10.20;;;;;;;0.32;100.00;99696.90;103760;1269;72921;-52
2023/12/02 09:21:29;;;;;;;19.00;12.50;;;;;;;0.28;100.00;99690.74;101427;1267;60276;-52
2023/12/02 09:23:57;;;;;;;20.90;11.90;;;;;;;0.26;100.00;99680.88;103975;1266;59391;-50
2023/12/02 09:26:33;;;;;;;17.20;10.50;;;;;;;0.26;100.00;99667.65;103881;1272;73373;-52
2023/12/02 09:29:00;;;;;;;13.30;8.10;;;;;;;0.25;100.00;99658.49;104626;1264;65635;-52
2023/12/02 09:31:28;;;;;;;14.50;9.10;;;;;;;0.26;100.00;99660.94;104093;1264;73581;-52
2023/12/02 09:33:58;;;;;;;9.40;6.50;;;;;;;0.27;100.00;99654.57;103964;1267;59759;-52
2023/12/02 09:36:37;;;;;;;12.70;7.50;;;;;;;0.26;100.00;99640.80;104287;1267;59652;-51
2023/12/02 09:39:11;;;;;;;10.10;7.40;;;;;;;0.27;100.00;99633.04;104443;1264;73132;-52
2023/12/02 09:41:51;;;;;;;7.60;6.20;;;;;;;0.28;100.00;99639.22;104202;1266;67644;-50
2023/12/02 09:44:24;;;;;;;12.10;7.50;;;;;;;0.28;100.00;99645.39;108560;1259;71460;-52
2023/12/02 09:47:17;;;;;;;15.10;9.70;;;;;;;0.28;100.00;99628.63;105078;1263;60948;-53
2023/12/02 09:50:10;;;;;;;17.50;9.50;;;;;;;0.27;100.00;99616.98;105225;1259;60404;-53
2023/12/02 09:52:44;;;;;;;17.40;10.50;;;;;;;0.27;100.00;99610.63;104349;1263;73156;-51
2023/12/02 09:55:36;;;;;;;19.90;11.70;;;;;;;0.26;100.00;99595.64;104493;1263;66481;-52
2023/12/02 09:58:24;;;;;;;16.50;10.50;;;;;;;0.27;100.00;99610.80;104449;1264;73865;-53
2023/12/02 10:01:04;;;;;;;12.30;8.60;;;;;;;0.27;100.00;99617.33;106674;1261;60176;-51
2023/12/02 10:03:40;;;;;;;16.30;9.80;;;;;;;0.27;100.00;99615.74;104832;1254;61302;-52
2023/12/02 10:06:07;;;;;;;14.40;9.40;;;;;;;0.26;100.00;99608.88;108867;1253;73701;-52
2023/12/02 10:09:09;;;;;;;17.50;10.70;;;;;;;0.25;100.00;99609.43;108923;1254;65490;-53
2023/12/02 10:11:55;;;;;;;18.70;11.20;;;;;;;0.25;100.00;99606.60;109003;1253;72844;-52
2023/12/02 10:14:22;;;;;;;22.30;13.40;;;;;;;0.26;100.00;99586.12;108968;1254;61362;-52
2023/12/02 10:16:52;;;;;;;17.10;11.40;;;;;;;0.25;100.00;99576.25;104976;1254;60071;-51
2023/12/02 10:19:26;;;;;;;17.40;11.90;;;;;;;0.25;100.00;99567.95;105643;1256;72967;-52
2023/12/02 10:21:54;;;;;;;19.80;12.10;;;;;;;0.25;100.00;99563.17;106295;1258;65172;-52
2023/12/02 10:24:28;;;;;;;19.40;12.60;;;;;;;0.22;100.00;99573.98;104595;1257;72438;-51
2023/12/02 10:27:03;;;;;;;23.80;15.30;;;;;;;0.19;100.00;99588.65;108868;1254;59089;-52
2023/12/02 10:29:32;;;;;;;23.10;14.40;;;;;;;0.15;100.00;99597.70;108822;1253;58827;-52
2023/12/02 10:32:08;;;;;;;25.40;16.40;;;;;;;0.11;100.00;99600.89;109016;1253;73108;-52
2023/12/02 10:34:46;;;;;;;23.00;14.80;;;;;;;0.09;100.00;99589.27;108857;1256;65827;-52
2023/12/02 10:37:14;;;;;;;23.10;14.00;;;;;;;0.09;100.00;99595.26;108879;1254;72650;-53
2023/12/02 10:39:46;;;;;;;22.80;14.00;;;;;;;0.10;100.00;99593.13;106950;1256;63315;-52
2023/12/02 10:42:21;;;;;;;20.90;13.60;;;;;;;0.13;100.00;99579.36;106187;1257;59660;-52
2023/12/02 10:44:55;;;;;;;19.10;13.10;;;;;;;0.13;100.00;99580.77;105759;1256;73023;-52
2023/12/02 10:47:22;;;;;;;20.30;11.90;;;;;;;0.15;100.00;99576.87;104544;1254;66947;-52
2023/12/02 10:49:49;;;;;;;17.80;12.30;;;;;;;0.16;100.00;99575.64;104634;1254;73203;-52
2023/12/02 10:52:17;;;;;;;21.10;12.70;;;;;;;0.19;100.00;99580.17;104771;1257;61384;-53
2023/12/02 10:54:48;;;;;;;19.30;11.50;;;;;;;0.18;100.00;99585.65;104496;1257;59635;-52
2023/12/02 10:57:15;;;;;;;18.50;11.90;;;;;;;0.18;100.00;99576.83;104519;1259;73262;-52
2023/12/02 10:59:48;;;;;;;21.50;14.80;;;;;;;0.19;100.00;99578.05;104838;1257;67072;-53
2023/12/02 11:02:21;;;;;;;17.80;12.30;;;;;;;0.19;100.00;99570.99;104886;1258;72073;-53
2023/12/02 11:04:49;;;;;;;25.20;13.70;;;;;;;0.19;100.00;99569.76;104852;1256;59701;-53
2023/12/02 11:07:17;;;;;;;19.20;11.20;;;;;;;0.20;100.00;99579.82;104964;1255;59999;-53
2023/12/02 11:10:03;;;;;;;15.80;9.50;;;;;;;0.22;100.00;99585.98;105189;1258;73306;-53
2023/12/02 11:12:41;;;;;;;14.90;9.80;;;;;;;0.22;100.00;99583.69;104915;1253;65423;-54
2023/12/02 11:15:09;;;;;;;18.80;11.70;;;;;;;0.23;100.00;99579.98;104950;1260;71278;-53
2023/12/02 11:17:40;;;;;;;14.50;9.20;;;;;;;0.24;100.00;99570.27;105374;1259;59695;-53